sensor_id;sensor_type;location;lat;lon;timestamp;P1;durP1;ratioP1;P2;durP2;ratioP2
26864;SDS011;40618;51.166;10.322;2022-11-12T00:00:39;3.30;;;2.22;;
26864;SDS011;40618;51.166;10.322;2022-11-12T00:03:05;3.65;;;2.38;;
26864;SDS011;40618;51.166;10.322;2022-11-12T00:05:31;3.20;;;2.13;;
26864;SDS011;40618;51.166;10.322;2022-11-12T00:07:57;2.92;;;2.58;;
26864;SDS011;40618;51.166;10.322;2022-11-12T00:10:23;2.97;;;2.05;;
26864;SDS011;40618;51.166;10.322;2022-11-12T00:12:50;5.65;;;2.17;;
26864;SDS011;40618;51.166;10.322;2022-11-12T00:15:16;4.55;;;2.35;;
26864;SDS011;40618;51.166;10.322;2022-11-12T00:17:42;3.42;;;2.53;;
26864;SDS011;40618;51.166;10.322;2022-11-12T00:20:08;3.28;;;2.75;;
26864;SDS011;40618;51.166;10.322;2022-11-12T00:22:34;2.80;;;2.20;;
26864;SDS011;40618;51.166;10.322;2022-11-12T00:25:00;3.30;;;2.15;;
26864;SDS011;40618;51.166;10.322;2022-11-12T00:27:26;3.05;;;2.33;;
26864;SDS011;40618;51.166;10.322;2022-11-12T00:29:52;3.15;;;2.55;;
26864;SDS011;40618;51.166;10.322;2022-11-12T00:32:17;3.50;;;2.65;;
26864;SDS011;40618;51.166;10.322;2022-11-12T00:34:44;5.72;;;2.92;;
26864;SDS011;40618;51.166;10.322;2022-11-12T00:37:09;3.67;;;2.70;;
26864;SDS011;40618;51.166;10.322;2022-11-12T00:39:35;3.80;;;2.53;;
26864;SDS011;40618;51.166;10.322;2022-11-12T00:42:01;3.65;;;2.50;;
26864;SDS011;40618;51.166;10.322;2022-11-12T00:44:27;3.90;;;2.85;;
26864;SDS011;40618;51.166;10.322;2022-11-12T00:46:53;6.35;;;3.00;;
26864;SDS011;40618;51.166;10.322;2022-11-12T00:49:20;4.43;;;3.10;;
26864;SDS011;40618;51.166;10.322;2022-11-12T00:51:46;4.45;;;3.00;;
26864;SDS011;40618;51.166;10.322;2022-11-12T00:54:12;3.42;;;2.88;;
26864;SDS011;40618;51.166;10.322;2022-11-12T00:56:38;7.57;;;3.50;;
26864;SDS011;40618;51.166;10.322;2022-11-12T00:59:03;5.63;;;3.28;;
26864;SDS011;40618;51.166;10.322;2022-11-12T01:01:29;8.02;;;3.60;;
26864;SDS011;40618;51.166;10.322;2022-11-12T01:03:56;3.78;;;3.25;;
26864;SDS011;40618;51.166;10.322;2022-11-12T01:06:23;4.82;;;3.42;;
26864;SDS011;40618;51.166;10.322;2022-11-12T01:08:49;4.13;;;3.03;;
26864;SDS011;40618;51.166;10.322;2022-11-12T01:11:18;3.67;;;3.15;;
26864;SDS011;40618;51.166;10.322;2022-11-12T01:13:54;5.57;;;2.95;;
26864;SDS011;40618;51.166;10.322;2022-11-12T01:16:30;5.68;;;3.63;;
26864;SDS011;40618;51.166;10.322;2022-11-12T01:19:01;4.85;;;3.58;;
26864;SDS011;40618;51.166;10.322;2022-11-12T01:21:30;5.40;;;3.95;;
26864;SDS011;40618;51.166;10.322;2022-11-12T01:24:01;5.05;;;3.85;;
26864;SDS011;40618;51.166;10.322;2022-11-12T01:26:26;5.25;;;3.65;;
26864;SDS011;40618;51.166;10.322;2022-11-12T01:28:53;6.10;;;3.17;;
26864;SDS011;40618;51.166;10.322;2022-11-12T01:31:21;5.53;;;3.40;;
26864;SDS011;40618;51.166;10.322;2022-11-12T01:33:57;8.45;;;3.67;;
26864;SDS011;40618;51.166;10.322;2022-11-12T01:36:29;5.93;;;3.70;;
26864;SDS011;40618;51.166;10.322;2022-11-12T01:38:59;5.40;;;3.45;;
26864;SDS011;40618;51.166;10.322;2022-11-12T01:41:26;6.32;;;3.55;;
26864;SDS011;40618;51.166;10.322;2022-11-12T01:52:49;5.13;;;3.60;;
26864;SDS011;40618;51.166;10.322;2022-11-12T01:55:19;5.38;;;3.65;;
26864;SDS011;40618;51.166;10.322;2022-11-12T01:57:54;6.07;;;3.63;;
26864;SDS011;40618;51.166;10.322;2022-11-12T02:00:26;5.75;;;3.47;;
26864;SDS011;40618;51.166;10.322;2022-11-12T02:02:52;6.47;;;4.00;;
26864;SDS011;40618;51.166;10.322;2022-11-12T02:05:26;5.45;;;4.07;;
26864;SDS011;40618;51.166;10.322;2022-11-12T02:07:54;8.00;;;3.88;;
26864;SDS011;40618;51.166;10.322;2022-11-12T02:10:22;7.45;;;3.67;;
26864;SDS011;40618;51.166;10.322;2022-11-12T02:12:50;6.55;;;4.18;;
26864;SDS011;40618;51.166;10.322;2022-11-12T02:15:37;6.57;;;3.67;;
26864;SDS011;40618;51.166;10.322;2022-11-12T02:18:04;5.63;;;3.72;;
26864;SDS011;40618;51.166;10.322;2022-11-12T02:20:34;4.82;;;3.45;;
26864;SDS011;40618;51.166;10.322;2022-11-12T02:23:03;5.40;;;3.67;;
26864;SDS011;40618;51.166;10.322;2022-11-12T02:25:30;7.43;;;4.13;;
26864;SDS011;40618;51.166;10.322;2022-11-12T02:27:57;7.43;;;3.92;;
26864;SDS011;40618;51.166;10.322;2022-11-12T02:30:35;5.30;;;3.97;;
26864;SDS011;40618;51.166;10.322;2022-11-12T02:33:07;5.40;;;4.28;;
26864;SDS011;40618;51.166;10.322;2022-11-12T02:35:32;7.13;;;4.35;;
26864;SDS011;40618;51.166;10.322;2022-11-12T02:37:58;6.90;;;4.05;;
26864;SDS011;40618;51.166;10.322;2022-11-12T02:40:24;6.18;;;3.50;;
26864;SDS011;40618;51.166;10.322;2022-11-12T02:42:50;6.40;;;3.95;;
26864;SDS011;40618;51.166;10.322;2022-11-12T02:45:15;7.47;;;4.32;;
26864;SDS011;40618;51.166;10.322;2022-11-12T02:47:42;6.95;;;4.60;;
26864;SDS011;40618;51.166;10.322;2022-11-12T02:50:08;6.18;;;4.47;;
26864;SDS011;40618;51.166;10.322;2022-11-12T02:52:34;8.80;;;4.38;;
26864;SDS011;40618;51.166;10.322;2022-11-12T02:55:00;4.95;;;3.92;;
26864;SDS011;40618;51.166;10.322;2022-11-12T02:57:26;7.95;;;3.85;;
26864;SDS011;40618;51.166;10.322;2022-11-12T02:59:54;5.57;;;4.20;;
26864;SDS011;40618;51.166;10.322;2022-11-12T03:02:20;7.55;;;4.10;;
26864;SDS011;40618;51.166;10.322;2022-11-12T03:04:45;6.05;;;4.30;;
26864;SDS011;40618;51.166;10.322;2022-11-12T03:07:11;8.90;;;4.78;;
26864;SDS011;40618;51.166;10.322;2022-11-12T03:09:36;6.82;;;4.40;;
26864;SDS011;40618;51.166;10.322;2022-11-12T03:12:02;6.03;;;4.45;;
26864;SDS011;40618;51.166;10.322;2022-11-12T03:14:28;6.43;;;4.85;;
26864;SDS011;40618;51.166;10.322;2022-11-12T03:16:53;7.20;;;4.43;;
26864;SDS011;40618;51.166;10.322;2022-11-12T03:19:19;6.55;;;4.30;;
26864;SDS011;40618;51.166;10.322;2022-11-12T03:21:44;7.03;;;4.60;;
26864;SDS011;40618;51.166;10.322;2022-11-12T03:24:10;6.25;;;4.68;;
26864;SDS011;40618;51.166;10.322;2022-11-12T03:26:36;8.32;;;5.13;;
26864;SDS011;40618;51.166;10.322;2022-11-12T03:29:02;6.90;;;4.55;;
26864;SDS011;40618;51.166;10.322;2022-11-12T03:31:28;8.60;;;5.30;;
26864;SDS011;40618;51.166;10.322;2022-11-12T03:33:53;5.80;;;4.47;;
26864;SDS011;40618;51.166;10.322;2022-11-12T03:36:19;6.55;;;5.03;;
26864;SDS011;40618;51.166;10.322;2022-11-12T03:38:45;8.13;;;4.88;;
26864;SDS011;40618;51.166;10.322;2022-11-12T03:41:10;7.40;;;4.72;;
26864;SDS011;40618;51.166;10.322;2022-11-12T03:43:36;9.27;;;5.18;;
26864;SDS011;40618;51.166;10.322;2022-11-12T03:46:02;9.35;;;4.80;;
26864;SDS011;40618;51.166;10.322;2022-11-12T03:48:27;7.70;;;4.93;;
26864;SDS011;40618;51.166;10.322;2022-11-12T03:50:57;6.80;;;4.80;;
26864;SDS011;40618;51.166;10.322;2022-11-12T03:55:50;7.05;;;4.10;;
26864;SDS011;40618;51.166;10.322;2022-11-12T03:58:16;6.85;;;5.05;;
26864;SDS011;40618;51.166;10.322;2022-11-12T04:00:41;9.10;;;5.05;;
26864;SDS011;40618;51.166;10.322;2022-11-12T04:03:07;7.00;;;4.63;;
26864;SDS011;40618;51.166;10.322;2022-11-12T04:05:33;6.88;;;4.35;;
26864;SDS011;40618;51.166;10.322;2022-11-12T04:08:18;8.07;;;4.70;;
26864;SDS011;40618;51.166;10.322;2022-11-12T04:11:09;8.82;;;4.93;;
26864;SDS011;40618;51.166;10.322;2022-11-12T04:13:38;7.85;;;4.63;;
26864;SDS011;40618;51.166;10.322;2022-11-12T04:16:07;7.30;;;4.32;;
26864;SDS011;40618;51.166;10.322;2022-11-12T04:18:56;8.88;;;5.07;;
26864;SDS011;40618;51.166;10.322;2022-11-12T04:21:49;6.47;;;4.15;;
26864;SDS011;40618;51.166;10.322;2022-11-12T04:24:26;9.10;;;5.47;;
26864;SDS011;40618;51.166;10.322;2022-11-12T04:27:27;6.80;;;4.82;;
26864;SDS011;40618;51.166;10.322;2022-11-12T04:29:58;7.50;;;5.22;;
26864;SDS011;40618;51.166;10.322;2022-11-12T04:35:15;6.80;;;5.07;;
26864;SDS011;40618;51.166;10.322;2022-11-12T04:37:43;8.90;;;5.50;;
26864;SDS011;40618;51.166;10.322;2022-11-12T04:43:08;7.03;;;4.72;;
26864;SDS011;40618;51.166;10.322;2022-11-12T04:45:55;8.25;;;5.43;;
26864;SDS011;40618;51.166;10.322;2022-11-12T04:48:22;8.90;;;6.10;;
26864;SDS011;40618;51.166;10.322;2022-11-12T04:50:49;7.70;;;5.35;;
26864;SDS011;40618;51.166;10.322;2022-11-12T04:53:21;6.85;;;5.45;;
26864;SDS011;40618;51.166;10.322;2022-11-12T04:55:49;9.85;;;4.97;;
26864;SDS011;40618;51.166;10.322;2022-11-12T04:58:20;8.82;;;5.55;;
26864;SDS011;40618;51.166;10.322;2022-11-12T05:00:47;9.90;;;5.57;;
26864;SDS011;40618;51.166;10.322;2022-11-12T05:03:14;6.63;;;4.95;;
26864;SDS011;40618;51.166;10.322;2022-11-12T05:05:40;8.43;;;5.63;;
26864;SDS011;40618;51.166;10.322;2022-11-12T05:08:06;10.07;;;5.45;;
26864;SDS011;40618;51.166;10.322;2022-11-12T05:10:32;8.52;;;5.35;;
26864;SDS011;40618;51.166;10.322;2022-11-12T05:12:58;8.30;;;5.15;;
26864;SDS011;40618;51.166;10.322;2022-11-12T05:15:24;8.27;;;5.75;;
26864;SDS011;40618;51.166;10.322;2022-11-12T05:17:50;9.13;;;6.07;;
26864;SDS011;40618;51.166;10.322;2022-11-12T05:20:16;6.90;;;5.15;;
26864;SDS011;40618;51.166;10.322;2022-11-12T05:22:42;8.65;;;5.53;;
26864;SDS011;40618;51.166;10.322;2022-11-12T05:25:08;9.27;;;6.40;;
26864;SDS011;40618;51.166;10.322;2022-11-12T05:27:34;8.40;;;6.15;;
26864;SDS011;40618;51.166;10.322;2022-11-12T05:30:00;9.15;;;5.97;;
26864;SDS011;40618;51.166;10.322;2022-11-12T05:32:26;8.02;;;5.80;;
26864;SDS011;40618;51.166;10.322;2022-11-12T05:34:52;8.38;;;5.93;;
26864;SDS011;40618;51.166;10.322;2022-11-12T05:37:18;8.32;;;5.75;;
26864;SDS011;40618;51.166;10.322;2022-11-12T05:39:43;7.97;;;6.38;;
26864;SDS011;40618;51.166;10.322;2022-11-12T05:42:09;9.02;;;5.53;;
26864;SDS011;40618;51.166;10.322;2022-11-12T05:44:35;7.03;;;5.47;;
26864;SDS011;40618;51.166;10.322;2022-11-12T05:47:00;9.40;;;6.22;;
26864;SDS011;40618;51.166;10.322;2022-11-12T05:49:26;10.65;;;6.53;;
26864;SDS011;40618;51.166;10.322;2022-11-12T05:51:52;9.80;;;6.15;;
26864;SDS011;40618;51.166;10.322;2022-11-12T05:54:18;8.40;;;5.57;;
26864;SDS011;40618;51.166;10.322;2022-11-12T05:56:44;7.60;;;5.93;;
26864;SDS011;40618;51.166;10.322;2022-11-12T05:59:11;8.27;;;6.07;;
26864;SDS011;40618;51.166;10.322;2022-11-12T06:01:38;8.15;;;5.68;;
26864;SDS011;40618;51.166;10.322;2022-11-12T06:04:11;11.27;;;6.63;;
26864;SDS011;40618;51.166;10.322;2022-11-12T06:06:39;38.17;;;15.80;;
26864;SDS011;40618;51.166;10.322;2022-11-12T06:09:06;38.35;;;14.60;;
26864;SDS011;40618;51.166;10.322;2022-11-12T06:11:33;16.35;;;10.07;;
26864;SDS011;40618;51.166;10.322;2022-11-12T06:13:59;33.35;;;13.88;;
26864;SDS011;40618;51.166;10.322;2022-11-12T06:16:26;18.70;;;10.07;;
26864;SDS011;40618;51.166;10.322;2022-11-12T06:18:52;13.70;;;8.57;;
26864;SDS011;40618;51.166;10.322;2022-11-12T06:21:17;11.98;;;7.70;;
26864;SDS011;40618;51.166;10.322;2022-11-12T06:23:43;10.18;;;7.05;;
26864;SDS011;40618;51.166;10.322;2022-11-12T06:26:09;17.95;;;9.88;;
26864;SDS011;40618;51.166;10.322;2022-11-12T06:28:34;20.02;;;11.10;;
26864;SDS011;40618;51.166;10.322;2022-11-12T06:31:00;24.08;;;9.85;;
26864;SDS011;40618;51.166;10.322;2022-11-12T06:33:26;23.25;;;10.48;;
26864;SDS011;40618;51.166;10.322;2022-11-12T06:36:01;23.75;;;9.80;;
26864;SDS011;40618;51.166;10.322;2022-11-12T06:38:29;23.38;;;10.85;;
26864;SDS011;40618;51.166;10.322;2022-11-12T06:40:59;15.95;;;9.85;;
26864;SDS011;40618;51.166;10.322;2022-11-12T06:43:26;16.00;;;9.13;;
26864;SDS011;40618;51.166;10.322;2022-11-12T06:45:53;13.43;;;8.00;;
26864;SDS011;40618;51.166;10.322;2022-11-12T06:48:23;11.23;;;7.07;;
26864;SDS011;40618;51.166;10.322;2022-11-12T06:50:48;10.82;;;6.75;;
26864;SDS011;40618;51.166;10.322;2022-11-12T06:53:14;10.43;;;6.88;;
26864;SDS011;40618;51.166;10.322;2022-11-12T06:55:39;11.13;;;6.80;;
26864;SDS011;40618;51.166;10.322;2022-11-12T06:58:05;9.27;;;7.15;;
26864;SDS011;40618;51.166;10.322;2022-11-12T07:00:30;12.88;;;7.82;;
26864;SDS011;40618;51.166;10.322;2022-11-12T07:02:56;10.77;;;6.75;;
26864;SDS011;40618;51.166;10.322;2022-11-12T07:05:22;10.85;;;6.85;;
26864;SDS011;40618;51.166;10.322;2022-11-12T07:07:47;13.43;;;7.28;;
26864;SDS011;40618;51.166;10.322;2022-11-12T07:10:13;13.68;;;8.18;;
26864;SDS011;40618;51.166;10.322;2022-11-12T07:12:39;15.95;;;9.02;;
26864;SDS011;40618;51.166;10.322;2022-11-12T07:15:05;17.52;;;10.05;;
26864;SDS011;40618;51.166;10.322;2022-11-12T07:17:31;18.25;;;11.93;;
26864;SDS011;40618;51.166;10.322;2022-11-12T07:19:56;16.40;;;9.88;;
26864;SDS011;40618;51.166;10.322;2022-11-12T07:22:22;11.38;;;7.82;;
26864;SDS011;40618;51.166;10.322;2022-11-12T07:24:47;8.60;;;6.03;;
26864;SDS011;40618;51.166;10.322;2022-11-12T07:27:13;9.48;;;6.43;;
26864;SDS011;40618;51.166;10.322;2022-11-12T07:29:39;9.10;;;6.30;;
26864;SDS011;40618;51.166;10.322;2022-11-12T07:32:05;8.25;;;5.68;;
26864;SDS011;40618;51.166;10.322;2022-11-12T07:34:31;8.70;;;5.57;;
26864;SDS011;40618;51.166;10.322;2022-11-12T07:36:56;7.60;;;6.10;;
26864;SDS011;40618;51.166;10.322;2022-11-12T07:39:22;9.15;;;6.30;;
26864;SDS011;40618;51.166;10.322;2022-11-12T07:41:47;7.65;;;5.93;;
26864;SDS011;40618;51.166;10.322;2022-11-12T07:44:15;9.07;;;6.32;;
26864;SDS011;40618;51.166;10.322;2022-11-12T07:46:41;8.88;;;6.10;;
26864;SDS011;40618;51.166;10.322;2022-11-12T07:49:06;9.90;;;6.40;;
26864;SDS011;40618;51.166;10.322;2022-11-12T07:51:32;7.75;;;5.75;;
26864;SDS011;40618;51.166;10.322;2022-11-12T07:53:57;12.20;;;5.88;;
26864;SDS011;40618;51.166;10.322;2022-11-12T07:56:26;7.80;;;5.40;;
26864;SDS011;40618;51.166;10.322;2022-11-12T07:58:54;12.85;;;7.93;;
26864;SDS011;40618;51.166;10.322;2022-11-12T08:01:33;10.43;;;6.60;;
26864;SDS011;40618;51.166;10.322;2022-11-12T08:04:04;14.00;;;7.10;;
26864;SDS011;40618;51.166;10.322;2022-11-12T08:06:33;10.18;;;6.60;;
26864;SDS011;40618;51.166;10.322;2022-11-12T08:09:00;13.68;;;7.30;;
26864;SDS011;40618;51.166;10.322;2022-11-12T08:11:28;17.15;;;10.07;;
26864;SDS011;40618;51.166;10.322;2022-11-12T08:13:54;14.40;;;8.85;;
26864;SDS011;40618;51.166;10.322;2022-11-12T08:16:20;13.82;;;8.75;;
26864;SDS011;40618;51.166;10.322;2022-11-12T08:18:46;13.38;;;8.45;;
26864;SDS011;40618;51.166;10.322;2022-11-12T08:21:12;13.35;;;8.88;;
26864;SDS011;40618;51.166;10.322;2022-11-12T08:23:40;14.50;;;8.25;;
26864;SDS011;40618;51.166;10.322;2022-11-12T08:26:07;11.77;;;7.95;;
26864;SDS011;40618;51.166;10.322;2022-11-12T08:28:36;10.77;;;7.43;;
26864;SDS011;40618;51.166;10.322;2022-11-12T08:31:07;11.07;;;7.25;;
26864;SDS011;40618;51.166;10.322;2022-11-12T08:33:37;9.15;;;5.88;;
26864;SDS011;40618;51.166;10.322;2022-11-12T08:36:03;9.30;;;6.22;;
26864;SDS011;40618;51.166;10.322;2022-11-12T08:38:35;8.75;;;6.50;;
26864;SDS011;40618;51.166;10.322;2022-11-12T08:41:05;11.90;;;7.28;;
26864;SDS011;40618;51.166;10.322;2022-11-12T08:43:34;11.82;;;7.15;;
26864;SDS011;40618;51.166;10.322;2022-11-12T08:46:00;10.70;;;7.03;;
26864;SDS011;40618;51.166;10.322;2022-11-12T08:48:30;8.93;;;6.63;;
26864;SDS011;40618;51.166;10.322;2022-11-12T08:50:59;10.15;;;6.85;;
26864;SDS011;40618;51.166;10.322;2022-11-12T08:53:27;10.95;;;6.25;;
26864;SDS011;40618;51.166;10.322;2022-11-12T08:55:54;12.52;;;5.50;;
26864;SDS011;40618;51.166;10.322;2022-11-12T08:58:21;6.97;;;5.22;;
26864;SDS011;40618;51.166;10.322;2022-11-12T09:00:48;9.82;;;5.80;;
26864;SDS011;40618;51.166;10.322;2022-11-12T09:03:15;13.40;;;5.22;;
26864;SDS011;40618;51.166;10.322;2022-11-12T09:05:44;10.48;;;4.47;;
26864;SDS011;40618;51.166;10.322;2022-11-12T09:08:11;7.78;;;4.90;;
26864;SDS011;40618;51.166;10.322;2022-11-12T09:10:41;5.85;;;4.75;;
26864;SDS011;40618;51.166;10.322;2022-11-12T09:13:06;7.95;;;4.57;;
26864;SDS011;40618;51.166;10.322;2022-11-12T09:15:32;5.45;;;4.30;;
26864;SDS011;40618;51.166;10.322;2022-11-12T09:18:02;8.10;;;4.28;;
26864;SDS011;40618;51.166;10.322;2022-11-12T09:20:31;6.53;;;4.82;;
26864;SDS011;40618;51.166;10.322;2022-11-12T09:22:58;6.20;;;4.35;;
26864;SDS011;40618;51.166;10.322;2022-11-12T09:25:29;6.60;;;4.35;;
26864;SDS011;40618;51.166;10.322;2022-11-12T09:27:55;7.57;;;3.88;;
26864;SDS011;40618;51.166;10.322;2022-11-12T09:30:21;4.85;;;3.40;;
26864;SDS011;40618;51.166;10.322;2022-11-12T09:32:47;5.75;;;4.03;;
26864;SDS011;40618;51.166;10.322;2022-11-12T09:35:13;5.22;;;3.58;;
26864;SDS011;40618;51.166;10.322;2022-11-12T09:37:39;8.30;;;5.13;;
26864;SDS011;40618;51.166;10.322;2022-11-12T09:40:05;8.52;;;4.32;;
26864;SDS011;40618;51.166;10.322;2022-11-12T09:42:34;4.50;;;3.80;;
26864;SDS011;40618;51.166;10.322;2022-11-12T09:45:05;6.88;;;4.57;;
26864;SDS011;40618;51.166;10.322;2022-11-12T09:47:42;6.93;;;4.60;;
26864;SDS011;40618;51.166;10.322;2022-11-12T09:52:49;9.07;;;5.68;;
26864;SDS011;40618;51.166;10.322;2022-11-12T09:55:31;6.53;;;5.65;;
26864;SDS011;40618;51.166;10.322;2022-11-12T09:58:09;5.57;;;4.50;;
26864;SDS011;40618;51.166;10.322;2022-11-12T10:00:37;6.28;;;4.70;;
26864;SDS011;40618;51.166;10.322;2022-11-12T10:03:23;5.60;;;3.92;;
26864;SDS011;40618;51.166;10.322;2022-11-12T10:06:05;5.20;;;3.80;;
26864;SDS011;40618;51.166;10.322;2022-11-12T10:08:47;4.75;;;3.63;;
26864;SDS011;40618;51.166;10.322;2022-11-12T10:21:14;4.20;;;3.53;;
26864;SDS011;40618;51.166;10.322;2022-11-12T10:23:48;7.13;;;4.25;;
26864;SDS011;40618;51.166;10.322;2022-11-12T10:26:19;10.80;;;5.47;;
26864;SDS011;40618;51.166;10.322;2022-11-12T10:31:35;7.43;;;4.95;;
26864;SDS011;40618;51.166;10.322;2022-11-12T10:34:13;6.68;;;4.90;;
26864;SDS011;40618;51.166;10.322;2022-11-12T10:36:52;5.13;;;4.20;;
26864;SDS011;40618;51.166;10.322;2022-11-12T10:39:35;5.43;;;3.75;;
26864;SDS011;40618;51.166;10.322;2022-11-12T10:42:04;4.65;;;3.45;;
26864;SDS011;40618;51.166;10.322;2022-11-12T10:44:36;4.53;;;3.00;;
26864;SDS011;40618;51.166;10.322;2022-11-12T10:52:52;3.55;;;3.08;;
26864;SDS011;40618;51.166;10.322;2022-11-12T11:13:50;8.02;;;3.65;;
26864;SDS011;40618;51.166;10.322;2022-11-12T11:16:23;7.55;;;4.53;;
26864;SDS011;40618;51.166;10.322;2022-11-12T11:18:53;4.13;;;2.65;;
26864;SDS011;40618;51.166;10.322;2022-11-12T11:24:35;5.05;;;3.15;;
26864;SDS011;40618;51.166;10.322;2022-11-12T11:27:31;3.33;;;2.45;;
26864;SDS011;40618;51.166;10.322;2022-11-12T11:30:18;5.30;;;3.22;;
26864;SDS011;40618;51.166;10.322;2022-11-12T11:33:08;4.47;;;2.80;;
26864;SDS011;40618;51.166;10.322;2022-11-12T11:36:01;3.45;;;2.00;;
26864;SDS011;40618;51.166;10.322;2022-11-12T11:39:00;10.40;;;2.75;;
26864;SDS011;40618;51.166;10.322;2022-11-12T11:44:45;2.47;;;1.80;;
26864;SDS011;40618;51.166;10.322;2022-11-12T11:50:20;1.77;;;1.55;;
26864;SDS011;40618;51.166;10.322;2022-11-12T11:55:53;3.58;;;2.38;;
26864;SDS011;40618;51.166;10.322;2022-11-12T12:01:19;3.03;;;1.95;;
26864;SDS011;40618;51.166;10.322;2022-11-12T12:19:24;20.13;;;7.57;;
26864;SDS011;40618;51.166;10.322;2022-11-12T12:21:55;31.27;;;11.65;;
26864;SDS011;40618;51.166;10.322;2022-11-12T12:24:31;14.77;;;7.65;;
26864;SDS011;40618;51.166;10.322;2022-11-12T12:27:14;14.55;;;6.30;;
26864;SDS011;40618;51.166;10.322;2022-11-12T12:29:46;4.15;;;2.45;;
26864;SDS011;40618;51.166;10.322;2022-11-12T12:35:18;2.35;;;1.40;;
26864;SDS011;40618;51.166;10.322;2022-11-12T12:40:40;6.95;;;3.80;;
26864;SDS011;40618;51.166;10.322;2022-11-12T12:43:32;9.35;;;4.43;;
26864;SDS011;40618;51.166;10.322;2022-11-12T12:46:05;13.38;;;5.82;;
26864;SDS011;40618;51.166;10.322;2022-11-12T12:48:37;50.45;;;18.50;;
26864;SDS011;40618;51.166;10.322;2022-11-12T12:51:07;27.35;;;12.10;;
26864;SDS011;40618;51.166;10.322;2022-11-12T12:53:34;19.00;;;9.40;;
26864;SDS011;40618;51.166;10.322;2022-11-12T13:08:51;2.15;;;1.70;;
26864;SDS011;40618;51.166;10.322;2022-11-12T13:37:41;2.80;;;2.25;;
26864;SDS011;40618;51.166;10.322;2022-11-12T13:40:16;2.63;;;1.95;;
26864;SDS011;40618;51.166;10.322;2022-11-12T13:42:49;2.55;;;1.88;;
26864;SDS011;40618;51.166;10.322;2022-11-12T13:45:20;2.65;;;1.58;;
26864;SDS011;40618;51.166;10.322;2022-11-12T13:47:50;2.15;;;1.60;;
26864;SDS011;40618;51.166;10.322;2022-11-12T13:50:21;3.65;;;2.45;;
26864;SDS011;40618;51.166;10.322;2022-11-12T13:52:48;3.28;;;2.15;;
26864;SDS011;40618;51.166;10.322;2022-11-12T13:55:15;2.83;;;2.08;;
26864;SDS011;40618;51.166;10.322;2022-11-12T13:57:50;4.93;;;2.53;;
26864;SDS011;40618;51.166;10.322;2022-11-12T14:03:01;4.35;;;2.35;;
26864;SDS011;40618;51.166;10.322;2022-11-12T14:05:31;3.03;;;1.98;;
26864;SDS011;40618;51.166;10.322;2022-11-12T14:10:41;3.05;;;1.70;;
26864;SDS011;40618;51.166;10.322;2022-11-12T14:21:26;2.10;;;1.23;;
26864;SDS011;40618;51.166;10.322;2022-11-12T14:23:52;3.40;;;1.70;;
26864;SDS011;40618;51.166;10.322;2022-11-12T14:26:34;3.10;;;1.88;;
26864;SDS011;40618;51.166;10.322;2022-11-12T14:29:06;4.43;;;1.70;;
26864;SDS011;40618;51.166;10.322;2022-11-12T14:31:31;6.60;;;3.10;;
26864;SDS011;40618;51.166;10.322;2022-11-12T14:37:00;18.33;;;7.90;;
26864;SDS011;40618;51.166;10.322;2022-11-12T14:39:26;26.08;;;11.32;;
26864;SDS011;40618;51.166;10.322;2022-11-12T14:41:54;15.43;;;6.78;;
26864;SDS011;40618;51.166;10.322;2022-11-12T14:44:24;10.38;;;4.90;;
26864;SDS011;40618;51.166;10.322;2022-11-12T14:47:02;5.22;;;3.45;;
26864;SDS011;40618;51.166;10.322;2022-11-12T14:49:43;6.45;;;3.20;;
26864;SDS011;40618;51.166;10.322;2022-11-12T14:55:05;6.13;;;2.70;;
26864;SDS011;40618;51.166;10.322;2022-11-12T14:57:38;5.50;;;2.72;;
26864;SDS011;40618;51.166;10.322;2022-11-12T15:00:24;4.90;;;2.65;;
26864;SDS011;40618;51.166;10.322;2022-11-12T15:03:03;4.40;;;2.08;;
26864;SDS011;40618;51.166;10.322;2022-11-12T15:05:30;3.65;;;2.17;;
26864;SDS011;40618;51.166;10.322;2022-11-12T15:08:00;6.72;;;3.15;;
26864;SDS011;40618;51.166;10.322;2022-11-12T15:10:38;5.80;;;3.58;;
26864;SDS011;40618;51.166;10.322;2022-11-12T15:13:09;5.32;;;3.15;;
26864;SDS011;40618;51.166;10.322;2022-11-12T15:15:52;5.10;;;3.17;;
26864;SDS011;40618;51.166;10.322;2022-11-12T15:18:24;4.63;;;2.70;;
26864;SDS011;40618;51.166;10.322;2022-11-12T15:23:52;4.82;;;2.33;;
26864;SDS011;40618;51.166;10.322;2022-11-12T15:26:30;4.80;;;2.90;;
26864;SDS011;40618;51.166;10.322;2022-11-12T15:29:01;5.43;;;2.90;;
26864;SDS011;40618;51.166;10.322;2022-11-12T15:31:48;2.75;;;2.35;;
26864;SDS011;40618;51.166;10.322;2022-11-12T15:34:27;3.63;;;2.30;;
26864;SDS011;40618;51.166;10.322;2022-11-12T15:36:54;3.65;;;2.40;;
26864;SDS011;40618;51.166;10.322;2022-11-12T15:39:22;4.18;;;2.40;;
26864;SDS011;40618;51.166;10.322;2022-11-12T15:41:56;3.75;;;2.35;;
26864;SDS011;40618;51.166;10.322;2022-11-12T15:44:46;7.85;;;2.60;;
26864;SDS011;40618;51.166;10.322;2022-11-12T15:47:22;3.08;;;2.10;;
26864;SDS011;40618;51.166;10.322;2022-11-12T15:49:49;3.40;;;1.77;;
26864;SDS011;40618;51.166;10.322;2022-11-12T15:52:19;2.03;;;1.75;;
26864;SDS011;40618;51.166;10.322;2022-11-12T15:54:46;2.58;;;1.60;;
26864;SDS011;40618;51.166;10.322;2022-11-12T15:57:16;2.00;;;1.42;;
26864;SDS011;40618;51.166;10.322;2022-11-12T15:59:48;2.58;;;1.40;;
26864;SDS011;40618;51.166;10.322;2022-11-12T16:02:24;2.30;;;1.63;;
26864;SDS011;40618;51.166;10.322;2022-11-12T16:04:50;1.58;;;1.38;;
26864;SDS011;40618;51.166;10.322;2022-11-12T16:07:16;2.95;;;2.03;;
26864;SDS011;40618;51.166;10.322;2022-11-12T16:09:42;2.08;;;1.52;;
26864;SDS011;40618;51.166;10.322;2022-11-12T16:12:09;2.58;;;1.70;;
26864;SDS011;40618;51.166;10.322;2022-11-12T16:14:37;3.00;;;2.03;;
26864;SDS011;40618;51.166;10.322;2022-11-12T16:17:03;2.42;;;1.90;;
26864;SDS011;40618;51.166;10.322;2022-11-12T16:19:34;4.55;;;2.38;;
26864;SDS011;40618;51.166;10.322;2022-11-12T16:22:00;3.13;;;1.98;;
26864;SDS011;40618;51.166;10.322;2022-11-12T16:24:25;3.97;;;2.42;;
26864;SDS011;40618;51.166;10.322;2022-11-12T16:26:51;5.43;;;2.30;;
26864;SDS011;40618;51.166;10.322;2022-11-12T16:29:17;3.67;;;2.60;;
26864;SDS011;40618;51.166;10.322;2022-11-12T16:31:43;3.65;;;2.58;;
26864;SDS011;40618;51.166;10.322;2022-11-12T16:34:09;4.28;;;2.92;;
26864;SDS011;40618;51.166;10.322;2022-11-12T16:36:36;6.25;;;3.40;;
26864;SDS011;40618;51.166;10.322;2022-11-12T16:39:04;6.43;;;3.35;;
26864;SDS011;40618;51.166;10.322;2022-11-12T16:41:30;6.55;;;3.45;;
26864;SDS011;40618;51.166;10.322;2022-11-12T16:43:56;4.30;;;2.92;;
26864;SDS011;40618;51.166;10.322;2022-11-12T16:46:23;5.55;;;2.78;;
26864;SDS011;40618;51.166;10.322;2022-11-12T16:48:53;5.13;;;2.33;;
26864;SDS011;40618;51.166;10.322;2022-11-12T16:51:20;4.03;;;2.30;;
26864;SDS011;40618;51.166;10.322;2022-11-12T16:53:47;4.00;;;2.08;;
26864;SDS011;40618;51.166;10.322;2022-11-12T16:56:17;2.90;;;2.40;;
26864;SDS011;40618;51.166;10.322;2022-11-12T16:58:46;3.20;;;1.92;;
26864;SDS011;40618;51.166;10.322;2022-11-12T17:01:13;3.17;;;2.20;;
26864;SDS011;40618;51.166;10.322;2022-11-12T17:03:49;4.63;;;2.70;;
26864;SDS011;40618;51.166;10.322;2022-11-12T17:06:16;5.40;;;3.58;;
26864;SDS011;40618;51.166;10.322;2022-11-12T17:08:42;7.30;;;5.32;;
26864;SDS011;40618;51.166;10.322;2022-11-12T17:11:09;5.75;;;3.55;;
26864;SDS011;40618;51.166;10.322;2022-11-12T17:13:36;4.05;;;3.00;;
26864;SDS011;40618;51.166;10.322;2022-11-12T17:16:03;3.05;;;2.45;;
26864;SDS011;40618;51.166;10.322;2022-11-12T17:18:32;3.60;;;2.57;;